sensor_id;sensor_type;location;lat;lon;timestamp;temperature;humidity
26579;DHT22;14227;47.674;19.320;2022-08-06T00:01:34;29.00;31.00
26579;DHT22;14227;47.674;19.320;2022-08-06T00:04:00;29.00;30.90
26579;DHT22;14227;47.674;19.320;2022-08-06T00:06:26;29.00;30.60
26579;DHT22;14227;47.674;19.320;2022-08-06T00:08:52;28.90;30.80
26579;DHT22;14227;47.674;19.320;2022-08-06T00:11:18;28.90;30.90
26579;DHT22;14227;47.674;19.320;2022-08-06T00:13:43;28.80;30.70
26579;DHT22;14227;47.674;19.320;2022-08-06T00:16:09;28.80;30.80
26579;DHT22;14227;47.674;19.320;2022-08-06T00:18:35;28.80;31.90
26579;DHT22;14227;47.674;19.320;2022-08-06T00:21:00;28.80;30.90
26579;DHT22;14227;47.674;19.320;2022-08-06T00:23:26;28.70;30.90
26579;DHT22;14227;47.674;19.320;2022-08-06T00:25:53;28.70;31.20
26579;DHT22;14227;47.674;19.320;2022-08-06T00:28:23;28.60;31.10
26579;DHT22;14227;47.674;19.320;2022-08-06T00:30:50;28.60;30.90
26579;DHT22;14227;47.674;19.320;2022-08-06T00:33:15;28.50;31.20
26579;DHT22;14227;47.674;19.320;2022-08-06T00:35:42;28.50;31.10
26579;DHT22;14227;47.674;19.320;2022-08-06T00:38:08;28.40;31.00
26579;DHT22;14227;47.674;19.320;2022-08-06T00:40:34;28.40;31.20
26579;DHT22;14227;47.674;19.320;2022-08-06T00:43:03;28.40;31.50
26579;DHT22;14227;47.674;19.320;2022-08-06T00:45:33;28.40;31.10
26579;DHT22;14227;47.674;19.320;2022-08-06T00:48:00;28.40;31.00
26579;DHT22;14227;47.674;19.320;2022-08-06T00:50:26;28.40;31.10
26579;DHT22;14227;47.674;19.320;2022-08-06T00:52:52;28.30;31.30
26579;DHT22;14227;47.674;19.320;2022-08-06T00:55:18;28.30;31.40
26579;DHT22;14227;47.674;19.320;2022-08-06T00:57:45;28.30;31.70
26579;DHT22;14227;47.674;19.320;2022-08-06T01:00:12;28.30;31.80
26579;DHT22;14227;47.674;19.320;2022-08-06T01:02:38;28.20;32.60
26579;DHT22;14227;47.674;19.320;2022-08-06T01:05:04;28.20;31.80
26579;DHT22;14227;47.674;19.320;2022-08-06T01:07:30;28.20;31.50
26579;DHT22;14227;47.674;19.320;2022-08-06T01:09:55;28.10;31.80
26579;DHT22;14227;47.674;19.320;2022-08-06T01:12:21;28.10;32.30
26579;DHT22;14227;47.674;19.320;2022-08-06T01:14:46;28.10;32.00
26579;DHT22;14227;47.674;19.320;2022-08-06T01:28:42;27.90;32.00
26579;DHT22;14227;47.674;19.320;2022-08-06T01:31:17;27.90;32.00
26579;DHT22;14227;47.674;19.320;2022-08-06T01:33:48;27.80;32.50
26579;DHT22;14227;47.674;19.320;2022-08-06T01:36:31;27.80;32.60
26579;DHT22;14227;47.674;19.320;2022-08-06T01:38:59;27.80;32.50
26579;DHT22;14227;47.674;19.320;2022-08-06T01:41:36;27.70;32.70
26579;DHT22;14227;47.674;19.320;2022-08-06T01:44:10;27.80;32.40
26579;DHT22;14227;47.674;19.320;2022-08-06T01:46:39;27.70;32.40
26579;DHT22;14227;47.674;19.320;2022-08-06T01:49:08;27.70;32.70
26579;DHT22;14227;47.674;19.320;2022-08-06T01:51:35;27.70;32.70
26579;DHT22;14227;47.674;19.320;2022-08-06T01:54:05;27.70;32.80
26579;DHT22;14227;47.674;19.320;2022-08-06T01:56:35;27.70;32.90
26579;DHT22;14227;47.674;19.320;2022-08-06T01:59:04;27.70;33.00
26579;DHT22;14227;47.674;19.320;2022-08-06T02:01:34;27.60;32.90
26579;DHT22;14227;47.674;19.320;2022-08-06T02:04:01;27.60;32.90
26579;DHT22;14227;47.674;19.320;2022-08-06T02:06:31;27.50;32.50
26579;DHT22;14227;47.674;19.320;2022-08-06T02:09:03;27.50;33.20
26579;DHT22;14227;47.674;19.320;2022-08-06T02:11:30;27.50;32.60
26579;DHT22;14227;47.674;19.320;2022-08-06T02:14:00;27.40;32.90
26579;DHT22;14227;47.674;19.320;2022-08-06T02:16:30;27.40;33.00
26579;DHT22;14227;47.674;19.320;2022-08-06T02:18:58;27.40;33.50
26579;DHT22;14227;47.674;19.320;2022-08-06T02:21:25;27.40;33.50
26579;DHT22;14227;47.674;19.320;2022-08-06T02:23:52;27.30;33.50
26579;DHT22;14227;47.674;19.320;2022-08-06T02:26:19;27.20;33.30
26579;DHT22;14227;47.674;19.320;2022-08-06T02:28:48;27.20;33.30
26579;DHT22;14227;47.674;19.320;2022-08-06T02:31:14;27.20;33.40
26579;DHT22;14227;47.674;19.320;2022-08-06T02:33:40;27.10;33.70
26579;DHT22;14227;47.674;19.320;2022-08-06T02:36:19;27.10;33.30
26579;DHT22;14227;47.674;19.320;2022-08-06T02:44:10;27.10;33.30
26579;DHT22;14227;47.674;19.320;2022-08-06T02:47:00;27.00;33.60
26579;DHT22;14227;47.674;19.320;2022-08-06T02:49:31;27.10;34.00
26579;DHT22;14227;47.674;19.320;2022-08-06T02:52:02;27.00;33.50
26579;DHT22;14227;47.674;19.320;2022-08-06T02:54:39;27.00;33.60
26579;DHT22;14227;47.674;19.320;2022-08-06T02:57:12;27.00;33.30
26579;DHT22;14227;47.674;19.320;2022-08-06T02:59:47;26.90;33.80
26579;DHT22;14227;47.674;19.320;2022-08-06T03:02:16;26.90;33.20
26579;DHT22;14227;47.674;19.320;2022-08-06T03:04:47;26.90;33.20
26579;DHT22;14227;47.674;19.320;2022-08-06T03:07:14;26.80;33.10
26579;DHT22;14227;47.674;19.320;2022-08-06T03:09:44;26.80;33.10
26579;DHT22;14227;47.674;19.320;2022-08-06T03:12:13;26.80;33.10
26579;DHT22;14227;47.674;19.320;2022-08-06T03:14:41;26.80;33.50
26579;DHT22;14227;47.674;19.320;2022-08-06T03:17:08;26.80;33.70
26579;DHT22;14227;47.674;19.320;2022-08-06T03:19:38;26.80;33.50
26579;DHT22;14227;47.674;19.320;2022-08-06T03:22:05;26.80;33.90
26579;DHT22;14227;47.674;19.320;2022-08-06T03:24:34;26.80;33.60
26579;DHT22;14227;47.674;19.320;2022-08-06T03:27:01;26.70;33.60
26579;DHT22;14227;47.674;19.320;2022-08-06T03:29:27;26.60;33.60
26579;DHT22;14227;47.674;19.320;2022-08-06T03:31:54;26.70;33.60
26579;DHT22;14227;47.674;19.320;2022-08-06T03:34:21;26.60;33.50
26579;DHT22;14227;47.674;19.320;2022-08-06T03:36:47;26.60;33.90
26579;DHT22;14227;47.674;19.320;2022-08-06T03:39:14;26.60;34.20
26579;DHT22;14227;47.674;19.320;2022-08-06T03:41:42;26.60;33.90
26579;DHT22;14227;47.674;19.320;2022-08-06T03:44:09;26.60;34.10
26579;DHT22;14227;47.674;19.320;2022-08-06T03:46:51;26.50;33.90
26579;DHT22;14227;47.674;19.320;2022-08-06T03:49:35;26.50;33.80
26579;DHT22;14227;47.674;19.320;2022-08-06T03:52:02;26.50;34.10
26579;DHT22;14227;47.674;19.320;2022-08-06T03:54:34;26.50;34.50
26579;DHT22;14227;47.674;19.320;2022-08-06T03:57:03;26.50;34.10
26579;DHT22;14227;47.674;19.320;2022-08-06T03:59:31;26.40;33.90
26579;DHT22;14227;47.674;19.320;2022-08-06T04:02:00;26.40;33.80
26579;DHT22;14227;47.674;19.320;2022-08-06T04:04:26;26.40;33.70
26579;DHT22;14227;47.674;19.320;2022-08-06T04:06:55;26.40;33.90
26579;DHT22;14227;47.674;19.320;2022-08-06T04:09:23;26.40;33.90
26579;DHT22;14227;47.674;19.320;2022-08-06T04:11:49;26.40;34.10
26579;DHT22;14227;47.674;19.320;2022-08-06T04:14:16;26.40;34.00
26579;DHT22;14227;47.674;19.320;2022-08-06T04:16:42;26.30;34.00
26579;DHT22;14227;47.674;19.320;2022-08-06T04:19:10;26.40;34.20
26579;DHT22;14227;47.674;19.320;2022-08-06T04:21:37;26.30;34.20
26579;DHT22;14227;47.674;19.320;2022-08-06T04:24:03;26.30;34.50
26579;DHT22;14227;47.674;19.320;2022-08-06T04:26:30;26.30;34.70
26579;DHT22;14227;47.674;19.320;2022-08-06T04:28:56;26.30;34.40
26579;DHT22;14227;47.674;19.320;2022-08-06T04:31:27;26.20;33.80
26579;DHT22;14227;47.674;19.320;2022-08-06T04:33:54;26.30;34.10
26579;DHT22;14227;47.674;19.320;2022-08-06T04:36:21;26.30;34.10
26579;DHT22;14227;47.674;19.320;2022-08-06T04:38:47;26.20;34.30
26579;DHT22;14227;47.674;19.320;2022-08-06T04:41:14;26.30;34.80
26579;DHT22;14227;47.674;19.320;2022-08-06T04:43:41;26.30;34.70
26579;DHT22;14227;47.674;19.320;2022-08-06T04:46:07;26.30;34.60
26579;DHT22;14227;47.674;19.320;2022-08-06T04:48:34;26.30;35.10
26579;DHT22;14227;47.674;19.320;2022-08-06T04:51:04;26.30;35.60
26579;DHT22;14227;47.674;19.320;2022-08-06T04:53:41;26.30;35.70
26579;DHT22;14227;47.674;19.320;2022-08-06T04:56:08;26.30;35.60
26579;DHT22;14227;47.674;19.320;2022-08-06T04:58:34;26.20;35.10
26579;DHT22;14227;47.674;19.320;2022-08-06T05:01:00;26.30;35.40
26579;DHT22;14227;47.674;19.320;2022-08-06T05:03:27;26.30;35.60
26579;DHT22;14227;47.674;19.320;2022-08-06T05:06:00;26.20;34.80
26579;DHT22;14227;47.674;19.320;2022-08-06T05:08:29;26.30;34.70
26579;DHT22;14227;47.674;19.320;2022-08-06T05:11:16;26.30;34.30
26579;DHT22;14227;47.674;19.320;2022-08-06T05:13:45;26.30;34.20
26579;DHT22;14227;47.674;19.320;2022-08-06T05:16:13;26.30;34.10
26579;DHT22;14227;47.674;19.320;2022-08-06T05:18:43;26.30;34.40
26579;DHT22;14227;47.674;19.320;2022-08-06T05:21:14;26.30;34.30
26579;DHT22;14227;47.674;19.320;2022-08-06T05:23:53;26.40;35.70
26579;DHT22;14227;47.674;19.320;2022-08-06T05:26:20;26.40;35.40
26579;DHT22;14227;47.674;19.320;2022-08-06T05:28:46;26.40;36.20
26579;DHT22;14227;47.674;19.320;2022-08-06T05:31:12;26.40;37.10
26579;DHT22;14227;47.674;19.320;2022-08-06T05:33:38;26.40;37.80
26579;DHT22;14227;47.674;19.320;2022-08-06T05:36:06;26.40;38.20
26579;DHT22;14227;47.674;19.320;2022-08-06T05:38:37;26.40;38.40
26579;DHT22;14227;47.674;19.320;2022-08-06T05:41:08;26.50;38.70
26579;DHT22;14227;47.674;19.320;2022-08-06T05:43:38;26.50;38.70
26579;DHT22;14227;47.674;19.320;2022-08-06T05:46:19;26.50;38.00
26579;DHT22;14227;47.674;19.320;2022-08-06T05:49:00;26.50;37.10
26579;DHT22;14227;47.674;19.320;2022-08-06T05:54:38;26.60;37.50
26579;DHT22;14227;47.674;19.320;2022-08-06T05:57:20;26.50;37.10
26579;DHT22;14227;47.674;19.320;2022-08-06T05:59:54;26.60;36.90
26579;DHT22;14227;47.674;19.320;2022-08-06T06:02:22;26.60;36.40
26579;DHT22;14227;47.674;19.320;2022-08-06T06:04:49;26.60;35.80
26579;DHT22;14227;47.674;19.320;2022-08-06T06:07:15;26.70;36.10
26579;DHT22;14227;47.674;19.320;2022-08-06T06:09:42;26.70;36.70
26579;DHT22;14227;47.674;19.320;2022-08-06T06:12:09;26.70;36.50
26579;DHT22;14227;47.674;19.320;2022-08-06T06:14:41;26.80;35.80
26579;DHT22;14227;47.674;19.320;2022-08-06T06:17:40;26.80;36.30
26579;DHT22;14227;47.674;19.320;2022-08-06T06:20:09;26.80;35.40
26579;DHT22;14227;47.674;19.320;2022-08-06T06:22:51;26.90;35.70
26579;DHT22;14227;47.674;19.320;2022-08-06T06:25:29;27.00;35.60
26579;DHT22;14227;47.674;19.320;2022-08-06T06:33:43;27.10;34.00
26579;DHT22;14227;47.674;19.320;2022-08-06T06:36:25;27.20;34.20
26579;DHT22;14227;47.674;19.320;2022-08-06T06:41:37;27.30;34.60
26579;DHT22;14227;47.674;19.320;2022-08-06T06:46:54;27.40;34.60
26579;DHT22;14227;47.674;19.320;2022-08-06T06:49:52;27.50;34.60
26579;DHT22;14227;47.674;19.320;2022-08-06T06:52:27;27.60;35.30
26579;DHT22;14227;47.674;19.320;2022-08-06T06:55:50;27.60;36.10
26579;DHT22;14227;47.674;19.320;2022-08-06T06:58:00;27.70;35.50
26579;DHT22;14227;47.674;19.320;2022-08-06T07:00:27;27.70;35.40
26579;DHT22;14227;47.674;19.320;2022-08-06T07:02:54;27.80;35.60
26579;DHT22;14227;47.674;19.320;2022-08-06T07:05:22;27.90;35.80
26579;DHT22;14227;47.674;19.320;2022-08-06T07:07:50;28.00;34.00
26579;DHT22;14227;47.674;19.320;2022-08-06T07:10:18;28.10;33.40
26579;DHT22;14227;47.674;19.320;2022-08-06T07:12:45;28.20;32.70
26579;DHT22;14227;47.674;19.320;2022-08-06T07:15:14;28.30;32.20
26579;DHT22;14227;47.674;19.320;2022-08-06T07:17:41;28.40;31.40
26579;DHT22;14227;47.674;19.320;2022-08-06T07:20:10;28.50;31.40
26579;DHT22;14227;47.674;19.320;2022-08-06T07:22:40;28.50;31.40
26579;DHT22;14227;47.674;19.320;2022-08-06T07:25:08;28.70;31.40
26579;DHT22;14227;47.674;19.320;2022-08-06T07:27:37;28.70;30.50
26579;DHT22;14227;47.674;19.320;2022-08-06T07:30:04;28.80;31.10
26579;DHT22;14227;47.674;19.320;2022-08-06T07:32:33;28.90;31.70
26579;DHT22;14227;47.674;19.320;2022-08-06T07:35:00;28.90;31.20
26579;DHT22;14227;47.674;19.320;2022-08-06T07:37:27;29.00;31.10
26579;DHT22;14227;47.674;19.320;2022-08-06T07:39:56;29.10;30.80
26579;DHT22;14227;47.674;19.320;2022-08-06T07:42:23;29.10;30.10
26579;DHT22;14227;47.674;19.320;2022-08-06T07:44:53;29.20;29.90
26579;DHT22;14227;47.674;19.320;2022-08-06T07:47:26;29.30;29.90
26579;DHT22;14227;47.674;19.320;2022-08-06T07:49:56;29.30;29.80
26579;DHT22;14227;47.674;19.320;2022-08-06T07:52:23;29.50;29.40
26579;DHT22;14227;47.674;19.320;2022-08-06T07:54:51;29.50;29.40
26579;DHT22;14227;47.674;19.320;2022-08-06T07:57:17;29.60;29.50
26579;DHT22;14227;47.674;19.320;2022-08-06T07:59:44;29.70;29.50
26579;DHT22;14227;47.674;19.320;2022-08-06T08:02:11;29.80;29.60
26579;DHT22;14227;47.674;19.320;2022-08-06T08:04:38;29.80;29.60
26579;DHT22;14227;47.674;19.320;2022-08-06T08:07:22;29.90;29.70
26579;DHT22;14227;47.674;19.320;2022-08-06T08:09:49;30.00;29.70
26579;DHT22;14227;47.674;19.320;2022-08-06T08:12:17;30.00;28.80
26579;DHT22;14227;47.674;19.320;2022-08-06T08:14:45;30.10;28.80
26579;DHT22;14227;47.674;19.320;2022-08-06T08:17:11;30.20;29.00
26579;DHT22;14227;47.674;19.320;2022-08-06T08:19:37;30.20;28.30
26579;DHT22;14227;47.674;19.320;2022-08-06T08:22:10;30.30;28.20
26579;DHT22;14227;47.674;19.320;2022-08-06T08:24:37;30.40;27.80
26579;DHT22;14227;47.674;19.320;2022-08-06T08:27:07;30.50;28.00
26579;DHT22;14227;47.674;19.320;2022-08-06T08:29:35;30.60;27.90
26579;DHT22;14227;47.674;19.320;2022-08-06T08:32:01;30.60;27.70
26579;DHT22;14227;47.674;19.320;2022-08-06T08:34:27;30.80;27.20
26579;DHT22;14227;47.674;19.320;2022-08-06T08:36:52;30.80;26.80
26579;DHT22;14227;47.674;19.320;2022-08-06T08:39:18;30.90;27.00
26579;DHT22;14227;47.674;19.320;2022-08-06T08:41:47;30.90;26.80
26579;DHT22;14227;47.674;19.320;2022-08-06T08:44:14;31.00;26.50
26579;DHT22;14227;47.674;19.320;2022-08-06T08:46:46;31.10;26.50
26579;DHT22;14227;47.674;19.320;2022-08-06T08:49:23;31.20;27.20
26579;DHT22;14227;47.674;19.320;2022-08-06T08:51:51;31.30;27.00
26579;DHT22;14227;47.674;19.320;2022-08-06T08:54:21;31.30;27.00
26579;DHT22;14227;47.674;19.320;2022-08-06T08:56:48;31.40;27.00
26579;DHT22;14227;47.674;19.320;2022-08-06T08:59:14;31.50;27.00
26579;DHT22;14227;47.674;19.320;2022-08-06T09:01:41;31.50;26.80
26579;DHT22;14227;47.674;19.320;2022-08-06T09:04:07;31.60;27.50
26579;DHT22;14227;47.674;19.320;2022-08-06T09:06:36;31.70;27.30
26579;DHT22;14227;47.674;19.320;2022-08-06T09:09:04;31.80;27.30
26579;DHT22;14227;47.674;19.320;2022-08-06T09:11:31;31.80;26.80
26579;DHT22;14227;47.674;19.320;2022-08-06T09:14:03;31.90;26.50
26579;DHT22;14227;47.674;19.320;2022-08-06T09:16:34;32.00;26.40
26579;DHT22;14227;47.674;19.320;2022-08-06T09:19:02;32.10;26.30
26579;DHT22;14227;47.674;19.320;2022-08-06T09:21:28;32.20;26.50
26579;DHT22;14227;47.674;19.320;2022-08-06T09:23:54;32.30;26.40
26579;DHT22;14227;47.674;19.320;2022-08-06T09:26:20;32.40;26.30
26579;DHT22;14227;47.674;19.320;2022-08-06T09:28:46;32.50;26.50
26579;DHT22;14227;47.674;19.320;2022-08-06T09:31:16;32.50;26.20
26579;DHT22;14227;47.674;19.320;2022-08-06T09:33:55;32.60;26.30
26579;DHT22;14227;47.674;19.320;2022-08-06T09:36:22;32.70;25.80
26579;DHT22;14227;47.674;19.320;2022-08-06T09:41:16;32.90;25.40
26579;DHT22;14227;47.674;19.320;2022-08-06T09:43:43;32.90;25.80
26579;DHT22;14227;47.674;19.320;2022-08-06T09:46:09;33.00;25.20
26579;DHT22;14227;47.674;19.320;2022-08-06T09:48:35;33.20;25.10
26579;DHT22;14227;47.674;19.320;2022-08-06T09:51:01;33.20;25.80
26579;DHT22;14227;47.674;19.320;2022-08-06T09:53:27;33.30;25.90
26579;DHT22;14227;47.674;19.320;2022-08-06T09:55:56;33.40;26.00
26579;DHT22;14227;47.674;19.320;2022-08-06T09:58:33;33.40;25.00
26579;DHT22;14227;47.674;19.320;2022-08-06T10:01:30;33.60;25.00
26579;DHT22;14227;47.674;19.320;2022-08-06T10:04:02;33.70;24.70
26579;DHT22;14227;47.674;19.320;2022-08-06T10:06:28;33.70;24.90
26579;DHT22;14227;47.674;19.320;2022-08-06T10:09:11;33.80;24.30
26579;DHT22;14227;47.674;19.320;2022-08-06T10:11:41;33.80;24.30
26579;DHT22;14227;47.674;19.320;2022-08-06T10:17:05;34.00;24.40
26579;DHT22;14227;47.674;19.320;2022-08-06T10:19:30;34.00;23.90
26579;DHT22;14227;47.674;19.320;2022-08-06T10:22:06;34.00;24.20
26579;DHT22;14227;47.674;19.320;2022-08-06T10:24:36;34.10;24.00
26579;DHT22;14227;47.674;19.320;2022-08-06T10:27:06;34.10;23.60
26579;DHT22;14227;47.674;19.320;2022-08-06T10:29:35;34.20;22.80
26579;DHT22;14227;47.674;19.320;2022-08-06T10:32:02;34.30;23.90
26579;DHT22;14227;47.674;19.320;2022-08-06T10:34:28;34.40;23.10
26579;DHT22;14227;47.674;19.320;2022-08-06T10:36:58;34.50;23.50
26579;DHT22;14227;47.674;19.320;2022-08-06T10:39:29;34.50;22.90
26579;DHT22;14227;47.674;19.320;2022-08-06T10:41:57;34.50;23.60
26579;DHT22;14227;47.674;19.320;2022-08-06T10:44:24;34.60;23.70
26579;DHT22;14227;47.674;19.320;2022-08-06T10:46:51;34.70;23.60
26579;DHT22;14227;47.674;19.320;2022-08-06T10:49:21;34.70;23.00
26579;DHT22;14227;47.674;19.320;2022-08-06T10:51:50;34.70;22.90
26579;DHT22;14227;47.674;19.320;2022-08-06T10:54:17;34.80;23.00
26579;DHT22;14227;47.674;19.320;2022-08-06T10:56:45;34.90;23.40
26579;DHT22;14227;47.674;19.320;2022-08-06T10:59:15;34.90;23.80
26579;DHT22;14227;47.674;19.320;2022-08-06T11:02:05;34.90;23.10
26579;DHT22;14227;47.674;19.320;2022-08-06T11:04:53;34.90;23.10
26579;DHT22;14227;47.674;19.320;2022-08-06T11:12:56;35.00;22.70
26579;DHT22;14227;47.674;19.320;2022-08-06T11:15:23;35.00;22.60
26579;DHT22;14227;47.674;19.320;2022-08-06T11:20:45;35.10;22.40
26579;DHT22;14227;47.674;19.320;2022-08-06T11:25:44;35.20;22.30
26579;DHT22;14227;47.674;19.320;2022-08-06T11:28:12;35.20;22.60
26579;DHT22;14227;47.674;19.320;2022-08-06T11:30:49;35.20;22.50
26579;DHT22;14227;47.674;19.320;2022-08-06T11:33:19;35.30;22.40
26579;DHT22;14227;47.674;19.320;2022-08-06T11:35:46;35.30;21.90
26579;DHT22;14227;47.674;19.320;2022-08-06T11:38:16;35.40;21.70
26579;DHT22;14227;47.674;19.320;2022-08-06T11:41:05;35.40;22.20
26579;DHT22;14227;47.674;19.320;2022-08-06T11:46:25;35.60;22.30
26579;DHT22;14227;47.674;19.320;2022-08-06T11:51:57;35.60;22.10
26579;DHT22;14227;47.674;19.320;2022-08-06T11:54:31;35.60;21.80
26579;DHT22;14227;47.674;19.320;2022-08-06T12:00:00;35.70;23.00
26579;DHT22;14227;47.674;19.320;2022-08-06T12:07:34;35.70;21.50
26579;DHT22;14227;47.674;19.320;2022-08-06T12:10:10;35.80;23.20
26579;DHT22;14227;47.674;19.320;2022-08-06T12:12:42;35.70;22.50
26579;DHT22;14227;47.674;19.320;2022-08-06T12:17:59;35.90;22.40
26579;DHT22;14227;47.674;19.320;2022-08-06T12:20:33;35.90;21.70
26579;DHT22;14227;47.674;19.320;2022-08-06T12:23:05;35.90;22.30
26579;DHT22;14227;47.674;19.320;2022-08-06T12:25:39;36.00;21.60
26579;DHT22;14227;47.674;19.320;2022-08-06T12:28:08;36.00;21.30
26579;DHT22;14227;47.674;19.320;2022-08-06T12:30:56;36.00;21.70
26579;DHT22;14227;47.674;19.320;2022-08-06T12:33:29;36.00;21.30
26579;DHT22;14227;47.674;19.320;2022-08-06T12:36:00;36.00;21.70
26579;DHT22;14227;47.674;19.320;2022-08-06T12:38:30;36.00;21.70
26579;DHT22;14227;47.674;19.320;2022-08-06T12:41:01;35.90;21.70
26579;DHT22;14227;47.674;19.320;2022-08-06T12:43:29;35.90;22.30
26579;DHT22;14227;47.674;19.320;2022-08-06T12:46:00;35.80;22.20
26579;DHT22;14227;47.674;19.320;2022-08-06T12:48:26;35.80;22.50
26579;DHT22;14227;47.674;19.320;2022-08-06T12:51:08;35.80;22.90
26579;DHT22;14227;47.674;19.320;2022-08-06T12:53:59;35.80;22.00
26579;DHT22;14227;47.674;19.320;2022-08-06T12:56:27;35.80;22.40
26579;DHT22;14227;47.674;19.320;2022-08-06T12:58:54;35.80;22.50
26579;DHT22;14227;47.674;19.320;2022-08-06T13:01:22;35.80;22.30
26579;DHT22;14227;47.674;19.320;2022-08-06T13:03:53;35.80;22.40
26579;DHT22;14227;47.674;19.320;2022-08-06T13:06:25;35.80;22.40
26579;DHT22;14227;47.674;19.320;2022-08-06T13:08:53;35.80;22.50
26579;DHT22;14227;47.674;19.320;2022-08-06T13:11:19;35.80;22.80
26579;DHT22;14227;47.674;19.320;2022-08-06T13:13:50;35.80;22.40
26579;DHT22;14227;47.674;19.320;2022-08-06T13:16:17;35.80;22.80
26579;DHT22;14227;47.674;19.320;2022-08-06T13:19:12;35.70;22.70
26579;DHT22;14227;47.674;19.320;2022-08-06T13:21:39;35.70;22.70
26579;DHT22;14227;47.674;19.320;2022-08-06T13:24:06;35.70;22.80
26579;DHT22;14227;47.674;19.320;2022-08-06T13:26:34;35.80;22.40
26579;DHT22;14227;47.674;19.320;2022-08-06T13:29:19;35.80;22.60
26579;DHT22;14227;47.674;19.320;2022-08-06T13:31:46;35.80;22.90
26579;DHT22;14227;47.674;19.320;2022-08-06T13:34:16;35.80;22.90
26579;DHT22;14227;47.674;19.320;2022-08-06T13:36:44;35.80;22.50
26579;DHT22;14227;47.674;19.320;2022-08-06T13:41:44;35.70;22.50
26579;DHT22;14227;47.674;19.320;2022-08-06T13:44:45;35.60;22.90
26579;DHT22;14227;47.674;19.320;2022-08-06T13:47:13;35.60;23.40
26579;DHT22;14227;47.674;19.320;2022-08-06T13:49:43;35.50;23.40
26579;DHT22;14227;47.674;19.320;2022-08-06T13:52:09;35.40;23.60
26579;DHT22;14227;47.674;19.320;2022-08-06T13:54:35;35.30;23.90
26579;DHT22;14227;47.674;19.320;2022-08-06T13:57:01;35.30;23.90
26579;DHT22;14227;47.674;19.320;2022-08-06T13:59:28;35.30;23.90
26579;DHT22;14227;47.674;19.320;2022-08-06T14:01:57;35.20;23.80
26579;DHT22;14227;47.674;19.320;2022-08-06T14:04:24;35.20;24.00
26579;DHT22;14227;47.674;19.320;2022-08-06T14:06:51;35.20;24.00
26579;DHT22;14227;47.674;19.320;2022-08-06T14:09:19;35.20;24.00
26579;DHT22;14227;47.674;19.320;2022-08-06T14:11:45;35.10;23.70
26579;DHT22;14227;47.674;19.320;2022-08-06T14:14:10;35.10;23.70
26579;DHT22;14227;47.674;19.320;2022-08-06T14:16:36;35.10;23.70
26579;DHT22;14227;47.674;19.320;2022-08-06T14:19:02;35.10;24.10
26579;DHT22;14227;47.674;19.320;2022-08-06T14:21:28;35.10;24.60
26579;DHT22;14227;47.674;19.320;2022-08-06T14:23:53;35.00;25.00
26579;DHT22;14227;47.674;19.320;2022-08-06T14:26:19;35.00;25.20
26579;DHT22;14227;47.674;19.320;2022-08-06T14:28:44;34.90;25.50
26579;DHT22;14227;47.674;19.320;2022-08-06T14:31:10;34.90;25.70
26579;DHT22;14227;47.674;19.320;2022-08-06T14:33:36;34.80;26.10
26579;DHT22;14227;47.674;19.320;2022-08-06T14:36:03;34.90;26.00
26579;DHT22;14227;47.674;19.320;2022-08-06T14:38:29;34.90;26.80
26579;DHT22;14227;47.674;19.320;2022-08-06T14:40:54;34.90;27.10
26579;DHT22;14227;47.674;19.320;2022-08-06T14:43:38;34.80;26.90
26579;DHT22;14227;47.674;19.320;2022-08-06T14:46:27;34.80;26.90
26579;DHT22;14227;47.674;19.320;2022-08-06T14:48:54;34.80;26.20
26579;DHT22;14227;47.674;19.320;2022-08-06T14:51:20;34.80;26.20
26579;DHT22;14227;47.674;19.320;2022-08-06T14:53:45;34.80;26.10
26579;DHT22;14227;47.674;19.320;2022-08-06T14:56:11;34.70;26.20
26579;DHT22;14227;47.674;19.320;2022-08-06T14:58:37;34.70;26.20
26579;DHT22;14227;47.674;19.320;2022-08-06T15:01:02;34.70;26.00
26579;DHT22;14227;47.674;19.320;2022-08-06T15:03:28;34.70;26.30
26579;DHT22;14227;47.674;19.320;2022-08-06T15:05:57;34.60;26.00
26579;DHT22;14227;47.674;19.320;2022-08-06T15:08:22;34.60;26.20
26579;DHT22;14227;47.674;19.320;2022-08-06T15:10:57;34.50;26.40
26579;DHT22;14227;47.674;19.320;2022-08-06T15:13:22;34.50;26.50
26579;DHT22;14227;47.674;19.320;2022-08-06T15:15:48;34.50;26.60
26579;DHT22;14227;47.674;19.320;2022-08-06T15:18:15;34.40;26.70
26579;DHT22;14227;47.674;19.320;2022-08-06T15:20:41;34.40;27.40
26579;DHT22;14227;47.674;19.320;2022-08-06T15:23:06;34.40;26.90
26579;DHT22;14227;47.674;19.320;2022-08-06T15:25:32;34.30;26.90
26579;DHT22;14227;47.674;19.320;2022-08-06T15:27:58;34.30;26.70
26579;DHT22;14227;47.674;19.320;2022-08-06T15:30:23;34.30;26.70
26579;DHT22;14227;47.674;19.320;2022-08-06T15:32:49;34.30;26.80
26579;DHT22;14227;47.674;19.320;2022-08-06T15:35:14;34.30;26.60
26579;DHT22;14227;47.674;19.320;2022-08-06T15:37:40;34.20;26.40
26579;DHT22;14227;47.674;19.320;2022-08-06T15:40:06;34.10;26.40
26579;DHT22;14227;47.674;19.320;2022-08-06T15:42:32;34.10;26.60
26579;DHT22;14227;47.674;19.320;2022-08-06T15:44:58;34.00;26.70
26579;DHT22;14227;47.674;19.320;2022-08-06T15:47:24;34.10;26.80
26579;DHT22;14227;47.674;19.320;2022-08-06T15:49:49;34.10;26.40
26579;DHT22;14227;47.674;19.320;2022-08-06T15:52:15;34.10;26.60
26579;DHT22;14227;47.674;19.320;2022-08-06T15:54:41;34.00;26.50
26579;DHT22;14227;47.674;19.320;2022-08-06T15:57:07;34.00;26.40
26579;DHT22;14227;47.674;19.320;2022-08-06T15:59:32;33.90;26.30
26579;DHT22;14227;47.674;19.320;2022-08-06T16:01:58;33.80;26.60
26579;DHT22;14227;47.674;19.320;2022-08-06T16:04:24;33.80;26.60
26579;DHT22;14227;47.674;19.320;2022-08-06T16:06:50;33.70;27.00
26579;DHT22;14227;47.674;19.320;2022-08-06T16:09:15;33.70;26.80
26579;DHT22;14227;47.674;19.320;2022-08-06T16:11:41;33.70;26.80
26579;DHT22;14227;47.674;19.320;2022-08-06T16:14:07;33.70;26.80
26579;DHT22;14227;47.674;19.320;2022-08-06T16:16:35;33.70;26.60
26579;DHT22;14227;47.674;19.320;2022-08-06T16:19:13;33.70;26.50
26579;DHT22;14227;47.674;19.320;2022-08-06T16:21:42;33.70;26.30
26579;DHT22;14227;47.674;19.320;2022-08-06T16:24:13;33.70;26.20
26579;DHT22;14227;47.674;19.320;2022-08-06T16:26:42;33.70;26.20
26579;DHT22;14227;47.674;19.320;2022-08-06T16:29:11;33.70;26.30
26579;DHT22;14227;47.674;19.320;2022-08-06T16:31:37;33.60;26.00
26579;DHT22;14227;47.674;19.320;2022-08-06T16:34:10;33.70;26.10
26579;DHT22;14227;47.674;19.320;2022-08-06T16:37:08;33.60;26.20